Cisco, Texas
Current Conditions -  °F | °C
As of 8:35 PM on Tuesday 21 Oct 2014 (Local Time) from KBKD Reporting Station
Clear Clear  
Wind Chill: 70°   Ceiling: Unl
Heat Index: 70°   Visibility: 7mi
Dew Point: 50°   Wind: 7mph
Humidity: 49%   Direction: 130°SE
Pressure: 30.04"   Gusts: NA
Location:  32.39°N, 98.98°W
Report Text: KBKD 220135Z AUTO 13006KT 7SM CLR 21/10 A3004 RMK AO2 T02100100
Loading
Personal Weather Stations






























Interactive Weather Map
Tropical Storm Tracking
New forecast layout! Learn more

10-Day Weather Forecast

Advertisements
Track Severe Weather on mobile